TimeHST,TemperatureF,Dew PointF,Humidity,Sea Level PressureIn,VisibilityMPH,Wind Direction,Wind SpeedMPH,Gust SpeedMPH,PrecipitationIn,Events,Conditions,WindDirDegrees,DateUTC
12:53 AM,78.1,70.0,76,29.98,10.0,SE,8.1,-,N/A,,Clear,130,2013-10-26 10:53:00
1:53 AM,77.0,70.0,79,29.98,10.0,SE,3.5,-,N/A,,Partly Cloudy,130,2013-10-26 11:53:00
2:53 AM,78.1,70.0,76,29.97,10.0,ESE,3.5,-,N/A,,Mostly Cloudy,120,2013-10-26 12:53:00
3:53 AM,78.1,70.0,76,29.97,10.0,East,3.5,-,N/A,,Mostly Cloudy,100,2013-10-26 13:53:00
4:53 AM,77.0,69.1,76,29.97,10.0,East,4.6,-,N/A,,Clear,100,2013-10-26 14:53:00
5:53 AM,75.9,69.1,79,29.98,10.0,Calm,Calm,-,N/A,,Clear,0,2013-10-26 15:53:00
6:53 AM,75.9,68.0,76,30.00,10.0,East,3.5,-,N/A,,Clear,100,2013-10-26 16:53:00
7:53 AM,80.1,71.1,74,30.01,10.0,Calm,Calm,-,N/A,,Clear,0,2013-10-26 17:53:00
8:53 AM,82.0,71.1,69,30.01,10.0,West,5.8,-,N/A,,Clear,270,2013-10-26 18:53:00
9:53 AM,82.9,71.1,67,30.01,10.0,WNW,9.2,-,N/A,,Clear,290,2013-10-26 19:53:00
10:53 AM,84.0,72.0,67,30.00,10.0,WNW,9.2,-,N/A,,Clear,300,2013-10-26 20:53:00
11:53 AM,84.0,72.0,67,29.99,10.0,West,8.1,-,N/A,,Clear,270,2013-10-26 21:53:00
12:53 PM,84.9,72.0,65,29.97,10.0,West,8.1,-,N/A,,Clear,270,2013-10-26 22:53:00
1:53 PM,84.9,72.0,65,29.96,10.0,West,8.1,-,N/A,,Clear,280,2013-10-26 23:53:00
2:53 PM,84.9,72.0,65,29.94,10.0,West,10.4,-,N/A,,Clear,270,2013-10-27 00:53:00
3:53 PM,84.0,71.1,65,29.95,10.0,West,9.2,-,N/A,,Clear,270,2013-10-27 01:53:00
4:53 PM,82.9,70.0,65,29.95,10.0,WNW,9.2,-,N/A,,Clear,300,2013-10-27 02:53:00
5:53 PM,82.9,69.1,63,29.97,10.0,NW,8.1,-,N/A,,Scattered Clouds,310,2013-10-27 03:53:00
6:53 PM,82.0,70.0,67,29.99,10.0,NW,5.8,-,N/A,,Mostly Cloudy,320,2013-10-27 04:53:00
7:53 PM,82.0,70.0,67,30.02,10.0,NNW,5.8,-,N/A,,Clear,330,2013-10-27 05:53:00
8:53 PM,81.0,69.1,67,30.03,10.0,North,5.8,-,N/A,,Clear,350,2013-10-27 06:53:00
9:53 PM,81.0,70.0,69,30.03,10.0,North,9.2,-,N/A,,Clear,360,2013-10-27 07:53:00
10:53 PM,80.1,70.0,71,30.02,10.0,NNE,5.8,-,N/A,,Overcast,20,2013-10-27 08:53:00
11:53 PM,80.1,70.0,71,30.01,10.0,North,9.2,-,N/A,,Partly Cloudy,360,2013-10-27 09:53:00